Time;durP1;ratioP1;P1;durP2;ratioP2;P2;SDS_P1;SDS_P2;PMS_P1;PMS_P2;Temp;Humidity;BMP_temperature;BMP_pressure;BME280_temperature;BME280_humidity;BME280_pressure;Samples;Min_cycle;Max_cycle;Signal;HPM_P1;HPM_P2
2021/03/10 00:01:06;;;;;;;17.15;11.63;;;5.50;64.90;;;;;;5084612;28;27395;-69
2021/03/10 00:03:51;;;;;;;16.88;11.23;;;5.50;64.90;;;;;;5084498;28;27398;-69
2021/03/10 00:06:35;;;;;;;18.15;11.43;;;5.50;65.00;;;;;;5084466;28;27375;-68
2021/03/10 00:09:20;;;;;;;15.07;10.27;;;5.50;65.20;;;;;;5084102;28;27337;-68
2021/03/10 00:12:05;;;;;;;15.95;11.13;;;5.50;65.50;;;;;;5083845;28;27374;-68
2021/03/10 00:14:50;;;;;;;19.80;11.50;;;5.40;65.20;;;;;;5084098;28;27356;-68
2021/03/10 00:17:35;;;;;;;18.10;10.48;;;5.40;65.30;;;;;;5084289;28;27344;-68
2021/03/10 00:20:19;;;;;;;17.88;11.02;;;5.40;65.30;;;;;;5084295;28;27333;-68
2021/03/10 00:23:04;;;;;;;17.85;10.90;;;5.40;65.30;;;;;;5083937;28;27405;-67
2021/03/10 00:25:48;;;;;;;15.75;9.95;;;5.40;65.40;;;;;;5084200;28;27415;-68
2021/03/10 00:28:33;;;;;;;15.20;10.30;;;5.40;65.40;;;;;;5084104;28;27557;-67
2021/03/10 00:31:17;;;;;;;15.52;10.50;;;5.40;65.50;;;;;;5083976;28;27454;-67
2021/03/10 00:34:02;;;;;;;20.58;10.48;;;5.30;65.40;;;;;;5084075;28;27517;-68
2021/03/10 00:36:46;;;;;;;16.17;10.45;;;5.30;65.50;;;;;;5083372;28;27931;-68
2021/03/10 00:39:31;;;;;;;17.10;11.02;;;5.40;65.70;;;;;;5084447;28;27454;-69
2021/03/10 00:42:16;;;;;;;19.17;11.55;;;5.30;65.60;;;;;;5084059;28;27479;-68
2021/03/10 00:45:00;;;;;;;14.95;9.80;;;5.30;65.70;;;;;;5084007;28;27466;-68
2021/03/10 00:47:44;;;;;;;15.10;10.40;;;5.30;65.70;;;;;;5083883;28;27434;-69
2021/03/10 00:50:29;;;;;;;17.45;11.07;;;5.30;65.80;;;;;;5083770;28;27380;-69
2021/03/10 00:53:14;;;;;;;15.38;10.45;;;5.30;65.90;;;;;;5083871;28;26939;-69
2021/03/10 00:55:58;;;;;;;14.68;9.27;;;5.30;66.70;;;;;;5083548;28;27388;-67
2021/03/10 00:58:42;;;;;;;15.07;9.82;;;5.30;66.00;;;;;;5083731;28;27915;-68
2021/03/10 01:01:27;;;;;;;16.80;10.48;;;5.30;66.00;;;;;;5083740;28;27422;-68
2021/03/10 01:04:14;;;;;;;14.27;9.93;;;5.30;66.00;;;;;;5083303;28;27370;-68
2021/03/10 01:06:59;;;;;;;20.80;11.00;;;5.30;66.10;;;;;;5086332;28;27407;-67
2021/03/10 01:09:44;;;;;;;15.93;9.95;;;5.30;66.10;;;;;;5087111;28;28081;-68
2021/03/10 01:12:28;;;;;;;15.70;10.30;;;5.30;66.30;;;;;;5086803;28;27379;-67
2021/03/10 01:15:17;;;;;;;16.65;10.95;;;5.30;66.20;;;;;;5087177;28;27346;-69
2021/03/10 01:18:01;;;;;;;18.83;10.82;;;5.30;66.10;;;;;;5087322;28;27387;-69
2021/03/10 01:20:46;;;;;;;17.15;10.50;;;5.30;66.20;;;;;;5086941;28;27422;-69
2021/03/10 01:23:31;;;;;;;16.98;11.15;;;5.30;66.20;;;;;;5086700;28;27489;-68
2021/03/10 01:26:15;;;;;;;21.35;11.38;;;5.30;66.30;;;;;;5086678;28;26919;-68
2021/03/10 01:29:00;;;;;;;15.55;10.65;;;5.30;66.40;;;;;;5086840;28;27474;-68
2021/03/10 01:31:45;;;;;;;19.23;11.68;;;5.30;66.30;;;;;;5086273;28;27593;-68
2021/03/10 01:34:29;;;;;;;17.25;11.52;;;5.20;66.30;;;;;;5086837;28;27440;-67
2021/03/10 01:37:13;;;;;;;19.48;12.57;;;5.20;66.50;;;;;;5086552;28;27353;-68
2021/03/10 01:39:58;;;;;;;17.48;11.23;;;5.20;66.40;;;;;;5088499;28;27438;-68
2021/03/10 01:42:43;;;;;;;16.02;10.90;;;5.20;66.50;;;;;;5107047;28;27880;-68
2021/03/10 01:45:27;;;;;;;17.15;11.40;;;5.10;66.40;;;;;;5092004;28;27381;-67
2021/03/10 01:48:12;;;;;;;19.33;11.80;;;5.10;66.50;;;;;;5106796;28;27359;-67
2021/03/10 01:50:56;;;;;;;19.25;11.65;;;5.10;66.60;;;;;;5077392;28;27394;-67
2021/03/10 01:53:41;;;;;;;17.33;12.02;;;5.00;66.60;;;;;;5092124;28;27376;-69
2021/03/10 01:56:26;;;;;;;18.95;11.55;;;4.90;66.50;;;;;;5107000;28;27485;-68
2021/03/10 01:59:10;;;;;;;19.17;11.52;;;4.90;66.60;;;;;;5088255;28;27305;-68
2021/03/10 02:01:55;;;;;;;19.23;13.10;;;4.80;66.80;;;;;;5106827;28;27399;-68
2021/03/10 02:04:39;;;;;;;20.58;12.68;;;4.70;66.90;;;;;;5106800;28;27412;-69
2021/03/10 02:07:33;;;;;;;20.88;11.70;;;4.70;66.90;;;;;;5106659;28;27474;-68
2021/03/10 02:10:26;;;;;;;22.52;12.60;;;4.60;67.20;;;;;;5091496;28;27337;-68
2021/03/10 02:13:35;;;;;;;17.48;11.38;;;4.60;67.30;;;;;;5092101;28;27486;-68
2021/03/10 02:16:44;;;;;;;18.08;11.35;;;4.50;67.40;;;;;;5106170;27;27420;-67
2021/03/10 02:19:56;;;;;;;19.30;11.93;;;4.50;67.60;;;;;;5102904;28;27371;-68
2021/03/10 02:22:59;;;;;;;18.80;11.55;;;4.50;67.80;;;;;;5106466;28;27324;-67
2021/03/10 02:25:55;;;;;;;16.27;11.70;;;4.40;67.80;;;;;;5106368;28;27404;-69
2021/03/10 02:28:39;;;;;;;19.58;11.93;;;4.40;67.80;;;;;;5103077;28;27373;-67
2021/03/10 02:31:24;;;;;;;19.90;12.63;;;4.50;67.90;;;;;;5076545;28;27423;-67
2021/03/10 02:34:08;;;;;;;19.63;12.98;;;4.50;67.90;;;;;;5091792;28;27482;-69
2021/03/10 02:36:53;;;;;;;19.60;12.73;;;4.50;68.00;;;;;;5091117;28;27475;-62
2021/03/10 02:39:37;;;;;;;20.45;12.98;;;4.50;67.90;;;;;;5091051;28;27478;-68
2021/03/10 02:42:22;;;;;;;17.38;11.68;;;4.60;67.90;;;;;;5105781;28;27413;-68
2021/03/10 02:45:07;;;;;;;19.98;12.32;;;4.60;67.90;;;;;;5091058;28;27428;-68
2021/03/10 02:47:52;;;;;;;20.45;11.82;;;4.60;68.00;;;;;;5106061;28;27456;-67
2021/03/10 02:50:36;;;;;;;19.77;12.55;;;4.60;67.90;;;;;;5105861;28;27490;-68
2021/03/10 02:53:21;;;;;;;17.77;11.48;;;4.60;67.80;;;;;;5090412;28;27439;-69
2021/03/10 02:56:08;;;;;;;20.75;12.63;;;4.60;67.80;;;;;;5090521;28;27424;-67
2021/03/10 02:58:53;;;;;;;19.15;12.20;;;4.70;67.90;;;;;;5105875;28;27431;-68
2021/03/10 03:01:38;;;;;;;20.30;13.13;;;4.70;67.90;;;;;;5087456;28;27433;-68
2021/03/10 03:04:23;;;;;;;19.38;12.73;;;4.70;67.90;;;;;;5105688;28;27475;-68
2021/03/10 03:07:08;;;;;;;19.70;12.38;;;4.70;67.90;;;;;;5105762;28;27460;-69
2021/03/10 03:09:52;;;;;;;19.58;12.25;;;4.70;67.90;;;;;;5105980;28;27462;-69
2021/03/10 03:12:39;;;;;;;18.35;11.98;;;4.70;67.90;;;;;;5075991;28;27516;-68
2021/03/10 03:15:24;;;;;;;22.15;14.15;;;4.70;67.80;;;;;;5090354;28;27446;-68
2021/03/10 03:18:09;;;;;;;19.70;13.05;;;4.80;67.80;;;;;;5105331;28;27435;-69
2021/03/10 03:20:53;;;;;;;18.30;11.48;;;4.80;67.90;;;;;;5089513;28;27427;-68
2021/03/10 03:23:38;;;;;;;20.92;13.20;;;4.80;67.90;;;;;;5105416;28;27868;-68
2021/03/10 03:26:23;;;;;;;19.27;12.27;;;4.80;68.10;;;;;;5105122;28;27422;-68
2021/03/10 03:29:07;;;;;;;20.50;11.88;;;4.80;68.00;;;;;;5090092;28;27470;-68
2021/03/10 03:31:53;;;;;;;19.58;13.10;;;4.80;67.90;;;;;;5090010;28;27476;-68
2021/03/10 03:34:37;;;;;;;20.90;13.18;;;4.80;67.90;;;;;;5075982;28;27952;-68
2021/03/10 03:37:23;;;;;;;18.90;12.30;;;4.80;67.80;;;;;;5105239;28;27472;-63
2021/03/10 03:40:08;;;;;;;20.65;11.82;;;4.80;67.80;;;;;;5104440;28;27405;-68
2021/03/10 03:42:52;;;;;;;21.00;12.57;;;4.80;68.60;;;;;;5072242;28;27491;-68
2021/03/10 03:45:37;;;;;;;20.85;13.10;;;4.80;67.80;;;;;;5105267;28;27441;-67
2021/03/10 03:48:21;;;;;;;22.70;13.23;;;4.80;67.90;;;;;;5104972;28;27410;-69
2021/03/10 03:51:24;;;;;;;23.27;13.38;;;4.80;67.90;;;;;;5105170;28;27442;-68
2021/03/10 03:54:09;;;;;;;21.83;12.52;;;4.80;67.90;;;;;;5091326;28;26936;-68
2021/03/10 03:56:53;;;;;;;24.73;13.95;;;4.80;67.90;;;;;;5104935;28;27421;-68
2021/03/10 03:59:38;;;;;;;21.48;13.60;;;4.80;67.90;;;;;;5104928;28;27394;-68
2021/03/10 04:02:22;;;;;;;25.23;13.10;;;4.80;67.90;;;;;;5104956;28;27403;-68
2021/03/10 04:05:07;;;;;;;24.38;13.98;;;4.80;67.90;;;;;;5104925;28;27378;-68
2021/03/10 04:07:53;;;;;;;20.10;13.00;;;4.80;68.00;;;;;;5089328;28;27372;-68
2021/03/10 04:10:39;;;;;;;22.63;13.25;;;4.70;67.90;;;;;;5104378;28;27359;-68
2021/03/10 04:13:23;;;;;;;26.40;14.07;;;4.70;68.00;;;;;;5089695;28;27385;-67
2021/03/10 04:16:08;;;;;;;21.25;12.95;;;4.70;68.20;;;;;;5104020;28;27313;-68
2021/03/10 04:18:52;;;;;;;22.55;14.15;;;4.60;68.10;;;;;;5104740;28;27891;-67
2021/03/10 04:21:37;;;;;;;22.25;14.82;;;4.60;68.20;;;;;;5104633;28;27338;-67
2021/03/10 04:24:21;;;;;;;23.77;13.38;;;4.60;68.20;;;;;;5104417;28;27435;-68
2021/03/10 04:27:06;;;;;;;23.45;13.50;;;4.50;68.30;;;;;;5105149;28;27327;-69
2021/03/10 04:29:50;;;;;;;22.05;13.73;;;4.40;68.30;;;;;;5104549;28;27379;-68
2021/03/10 04:32:35;;;;;;;24.98;13.98;;;4.40;68.60;;;;;;5104247;28;27410;-69
2021/03/10 04:35:21;;;;;;;24.75;14.45;;;4.30;68.50;;;;;;5104532;28;27436;-69
2021/03/10 04:38:06;;;;;;;21.55;13.32;;;4.30;68.80;;;;;;5104160;28;27321;-68
2021/03/10 04:40:50;;;;;;;26.17;13.32;;;4.30;69.00;;;;;;5104877;27;28079;-69
2021/03/10 04:43:34;;;;;;;24.45;14.65;;;4.30;69.00;;;;;;5107498;28;27536;-67
2021/03/10 04:46:19;;;;;;;21.17;12.57;;;4.20;68.80;;;;;;5107984;28;27415;-67
2021/03/10 04:49:03;;;;;;;25.92;13.48;;;4.20;68.80;;;;;;5107951;28;27454;-68
2021/03/10 04:51:48;;;;;;;24.63;14.45;;;4.10;68.80;;;;;;5089211;28;27514;-69
2021/03/10 04:54:32;;;;;;;24.63;13.82;;;4.10;68.80;;;;;;5107575;28;27452;-67
2021/03/10 04:57:17;;;;;;;25.77;14.32;;;4.00;69.00;;;;;;5107530;28;27482;-67
2021/03/10 05:00:03;;;;;;;22.35;13.20;;;4.00;69.00;;;;;;5107813;28;27442;-68
2021/03/10 05:02:48;;;;;;;24.42;14.18;;;3.90;69.00;;;;;;5108064;28;27890;-68
2021/03/10 05:05:32;;;;;;;24.13;13.63;;;3.80;69.10;;;;;;5107614;28;27474;-69
2021/03/10 05:08:17;;;;;;;24.88;13.70;;;3.80;69.10;;;;;;5092613;28;27424;-69
2021/03/10 05:11:02;;;;;;;24.27;13.98;;;3.70;69.20;;;;;;5107108;28;27470;-68
2021/03/10 05:13:50;;;;;;;23.60;13.68;;;3.70;69.10;;;;;;5107323;28;27415;-69
2021/03/10 05:16:34;;;;;;;24.60;14.40;;;3.60;69.20;;;;;;5107269;28;27533;-69
2021/03/10 05:19:19;;;;;;;28.48;14.85;;;3.60;69.20;;;;;;5107338;28;27482;-69
2021/03/10 05:22:03;;;;;;;26.35;14.18;;;3.50;69.30;;;;;;5107353;28;27419;-68
2021/03/10 05:24:48;;;;;;;23.88;14.20;;;3.50;69.50;;;;;;5107011;28;27532;-67
2021/03/10 05:27:32;;;;;;;22.08;13.93;;;3.40;69.50;;;;;;5107240;28;27510;-67
2021/03/10 05:30:17;;;;;;;23.80;13.88;;;3.40;69.50;;;;;;5107087;28;27467;-67
2021/03/10 05:33:02;;;;;;;26.02;14.70;;;3.40;69.70;;;;;;5107044;28;27397;-63
2021/03/10 05:35:46;;;;;;;21.27;13.68;;;3.40;70.00;;;;;;5088562;28;27421;-68
2021/03/10 05:38:31;;;;;;;25.92;14.10;;;3.40;70.10;;;;;;5091528;28;27562;-62
2021/03/10 05:41:16;;;;;;;24.80;13.45;;;3.40;70.30;;;;;;5106854;28;27482;-69
2021/03/10 05:44:00;;;;;;;24.30;14.30;;;3.40;70.30;;;;;;5107283;28;27402;-69
2021/03/10 05:46:45;;;;;;;24.38;14.02;;;3.50;70.30;;;;;;5077578;28;27507;-69
2021/03/10 05:49:29;;;;;;;23.33;13.35;;;3.50;70.40;;;;;;5106753;28;27399;-69
2021/03/10 05:52:14;;;;;;;26.20;15.57;;;3.50;70.30;;;;;;5105488;27;27379;-69
2021/03/10 05:54:59;;;;;;;19.88;12.95;;;3.50;70.20;;;;;;5091808;28;27387;-69
2021/03/10 05:57:45;;;;;;;25.33;14.40;;;3.50;70.00;;;;;;5106593;28;27983;-69
2021/03/10 06:00:29;;;;;;;23.13;14.07;;;3.50;70.00;;;;;;5106526;28;27337;-63
2021/03/10 06:03:17;;;;;;;26.15;13.88;;;3.60;70.00;;;;;;5106803;28;27341;-68
2021/03/10 06:06:03;;;;;;;25.10;14.32;;;3.60;70.00;;;;;;5106116;28;27412;-63
2021/03/10 06:08:48;;;;;;;25.08;14.23;;;3.60;70.00;;;;;;5106687;28;27431;-68
2021/03/10 06:11:32;;;;;;;21.33;13.30;;;3.70;70.00;;;;;;5106459;28;27479;-68
2021/03/10 06:14:16;;;;;;;23.63;14.43;;;3.70;69.90;;;;;;5106694;28;27412;-68
2021/03/10 06:17:06;;;;;;;23.30;13.77;;;3.70;69.80;;;;;;5106895;28;26931;-69
2021/03/10 06:19:51;;;;;;;28.55;15.18;;;3.70;69.80;;;;;;5106476;28;27957;-69
2021/03/10 06:22:35;;;;;;;26.15;13.85;;;3.80;69.70;;;;;;5106495;28;27397;-69
2021/03/10 06:25:21;;;;;;;29.27;14.88;;;3.80;69.70;;;;;;5106508;28;27411;-69
2021/03/10 06:28:05;;;;;;;22.52;12.90;;;3.90;69.70;;;;;;5106141;28;27413;-69
2021/03/10 06:30:50;;;;;;;26.88;14.18;;;3.90;69.70;;;;;;5106034;28;27442;-69
2021/03/10 06:33:34;;;;;;;22.80;13.05;;;3.90;69.50;;;;;;5102964;28;27529;-63
2021/03/10 06:36:26;;;;;;;24.20;13.75;;;4.00;69.50;;;;;;5090916;28;27430;-68
2021/03/10 06:39:11;;;;;;;22.30;12.98;;;4.10;69.40;;;;;;5090941;28;27435;-68
2021/03/10 06:41:57;;;;;;;25.33;14.52;;;4.10;69.10;;;;;;5105414;28;27857;-69
2021/03/10 06:44:50;;;;;;;24.05;14.80;;;4.30;69.00;;;;;;5102555;28;27446;-68
2021/03/10 06:47:41;;;;;;;23.50;14.32;;;4.40;68.70;;;;;;5106133;28;27398;-66
2021/03/10 06:50:35;;;;;;;23.75;14.07;;;4.50;68.60;;;;;;5105795;28;27383;-67
2021/03/10 06:53:30;;;;;;;28.40;15.52;;;4.60;68.40;;;;;;5106199;28;27888;-68
2021/03/10 06:56:34;;;;;;;30.30;13.57;;;4.70;68.00;;;;;;5106429;28;27451;-68
2021/03/10 06:59:19;;;;;;;42.88;16.70;;;4.80;67.80;;;;;;5105186;28;27404;-68
2021/03/10 07:02:03;;;;;;;41.20;17.50;;;4.90;67.60;;;;;;5105579;28;27395;-68
2021/03/10 07:04:49;;;;;;;42.10;17.58;;;5.00;67.50;;;;;;5105424;27;27880;-68
2021/03/10 07:07:35;;;;;;;44.60;17.65;;;5.10;67.50;;;;;;5105733;28;27416;-68
2021/03/10 07:10:21;;;;;;;35.83;17.77;;;5.10;67.30;;;;;;5090481;28;27427;-68
2021/03/10 07:13:05;;;;;;;44.50;17.90;;;5.10;67.20;;;;;;5105459;28;27371;-62
2021/03/10 07:15:52;;;;;;;44.35;18.48;;;5.20;67.10;;;;;;5090620;28;27472;-70
2021/03/10 07:18:36;;;;;;;43.63;17.38;;;5.20;67.20;;;;;;5105299;28;27450;-68
2021/03/10 07:21:29;;;;;;;39.17;18.50;;;5.20;67.10;;;;;;5105354;28;27447;-66
2021/03/10 07:24:20;;;;;;;41.22;17.10;;;5.30;67.10;;;;;;5104935;28;27481;-67
2021/03/10 07:27:05;;;;;;;39.42;17.15;;;5.40;67.00;;;;;;5087051;28;27438;-68
2021/03/10 07:29:56;;;;;;;41.72;18.58;;;5.50;67.00;;;;;;5090381;28;27408;-67
2021/03/10 07:32:41;;;;;;;42.15;18.50;;;5.60;66.70;;;;;;5105252;28;27332;-68
2021/03/10 07:35:25;;;;;;;41.72;18.00;;;5.80;66.50;;;;;;5105753;28;27314;-68
2021/03/10 07:38:10;;;;;;;36.83;18.55;;;5.90;66.10;;;;;;5075598;28;27492;-68
2021/03/10 07:40:59;;;;;;;41.45;17.95;;;6.00;65.80;;;;;;5083383;28;27436;-68
2021/03/10 07:43:44;;;;;;;44.10;18.55;;;6.10;65.50;;;;;;5084622;28;27326;-67
2021/03/10 07:46:32;;;;;;;33.40;19.60;;;6.20;65.40;;;;;;5083797;28;27501;-67
2021/03/10 07:49:22;;;;;;;42.65;20.95;;;6.20;65.40;;;;;;5084430;28;27510;-70
2021/03/10 07:52:10;;;;;;;36.40;17.23;;;6.30;65.30;;;;;;5083907;28;27401;-67
2021/03/10 07:54:56;;;;;;;35.53;17.08;;;6.30;65.00;;;;;;5084652;28;27464;-68
2021/03/10 07:57:52;;;;;;;30.48;16.40;;;6.40;64.90;;;;;;5084619;28;27430;-68
2021/03/10 08:00:37;;;;;;;37.08;17.48;;;6.40;64.80;;;;;;5084252;28;27415;-69
2021/03/10 08:03:34;;;;;;;33.63;18.17;;;6.50;64.70;;;;;;5081189;28;27407;-69
2021/03/10 08:06:19;;;;;;;35.63;17.90;;;6.50;64.50;;;;;;5084522;28;27461;-67
2021/03/10 08:09:04;;;;;;;27.98;16.25;;;6.60;64.50;;;;;;5083819;28;27466;-67
2021/03/10 08:12:07;;;;;;;30.23;16.17;;;6.60;64.50;;;;;;5084200;28;27960;-68
2021/03/10 08:14:51;;;;;;;32.22;16.77;;;6.60;64.40;;;;;;5083657;28;27582;-68
2021/03/10 08:17:35;;;;;;;33.80;16.00;;;6.70;64.40;;;;;;5083365;28;27458;-69
2021/03/10 08:20:28;;;;;;;32.95;17.58;;;6.70;64.50;;;;;;5084433;28;27422;-68
2021/03/10 08:23:13;;;;;;;34.65;17.42;;;6.80;64.50;;;;;;5070542;28;27376;-69
2021/03/10 08:25:57;;;;;;;33.25;17.30;;;7.00;64.60;;;;;;5084169;28;27360;-69
2021/03/10 08:28:42;;;;;;;34.47;17.80;;;7.10;64.70;;;;;;5083207;28;27409;-68
2021/03/10 08:31:26;;;;;;;29.92;17.17;;;7.20;64.30;;;;;;5083800;28;27313;-68
2021/03/10 08:34:11;;;;;;;35.80;18.08;;;7.30;64.00;;;;;;5080729;28;27403;-68
2021/03/10 08:36:56;;;;;;;29.10;17.08;;;7.40;63.80;;;;;;5083903;28;27386;-68
2021/03/10 08:39:47;;;;;;;36.22;18.17;;;7.50;63.70;;;;;;5083829;28;27327;-67
2021/03/10 08:42:32;;;;;;;39.10;19.25;;;7.50;63.40;;;;;;5080693;28;27440;-67
2021/03/10 08:45:35;;;;;;;36.22;17.73;;;7.60;63.30;;;;;;5080458;28;27998;-68
2021/03/10 08:48:20;;;;;;;33.80;18.05;;;7.80;62.60;;;;;;5083725;28;27414;-68
2021/03/10 08:51:05;;;;;;;35.15;18.63;;;8.00;62.30;;;;;;5083700;28;27407;-67
2021/03/10 08:53:49;;;;;;;28.73;17.50;;;8.20;62.20;;;;;;5080449;28;27394;-68
2021/03/10 08:56:45;;;;;;;37.55;19.13;;;8.50;61.80;;;;;;5080389;28;27919;-68
2021/03/10 08:59:34;;;;;;;33.17;18.02;;;8.80;61.20;;;;;;5083507;28;27410;-68
2021/03/10 09:02:34;;;;;;;36.05;19.65;;;9.00;60.40;;;;;;5080582;28;27383;-68
2021/03/10 09:05:27;;;;;;;34.67;18.58;;;9.50;59.20;;;;;;5080419;28;27439;-68
2021/03/10 09:08:17;;;;;;;34.47;19.63;;;9.90;58.20;;;;;;5080086;28;27482;-69
2021/03/10 09:11:02;;;;;;;36.67;19.52;;;10.40;57.90;;;;;;5079243;28;27490;-68
2021/03/10 09:14:10;;;;;;;32.60;18.63;;;11.00;56.20;;;;;;5081489;28;27408;-68
2021/03/10 09:17:07;;;;;;;32.28;19.13;;;11.30;55.50;;;;;;5079626;28;27328;-67
2021/03/10 09:19:58;;;;;;;36.67;19.60;;;11.30;55.60;;;;;;5080164;28;27400;-68
2021/03/10 09:22:44;;;;;;;34.47;20.52;;;11.30;56.00;;;;;;5080213;28;27478;-66
2021/03/10 09:25:54;;;;;;;32.35;18.85;;;11.30;56.10;;;;;;5079272;28;27461;-67
2021/03/10 09:28:44;;;;;;;30.17;18.95;;;11.30;56.10;;;;;;5083424;28;27407;-66
2021/03/10 09:31:38;;;;;;;33.75;19.83;;;11.30;56.00;;;;;;5069456;28;27475;-66
2021/03/10 09:34:26;;;;;;;37.03;20.27;;;11.40;56.10;;;;;;5055018;28;27337;-67
2021/03/10 09:37:15;;;;;;;35.40;19.63;;;11.40;56.10;;;;;;5082906;28;27320;-67
2021/03/10 09:40:03;;;;;;;33.90;19.73;;;11.50;55.80;;;;;;5085392;28;27655;-63
2021/03/10 09:43:21;;;;;;;32.65;19.13;;;11.70;55.50;;;;;;5107266;28;27390;-67
2021/03/10 09:46:08;;;;;;;30.52;18.90;;;12.10;55.00;;;;;;5088628;28;27408;-67
2021/03/10 09:49:02;;;;;;;31.80;18.50;;;12.30;54.40;;;;;;5102787;28;27352;-68
2021/03/10 09:51:48;;;;;;;29.65;19.73;;;12.60;54.20;;;;;;5103583;28;27394;-67
2021/03/10 09:54:46;;;;;;;31.02;19.15;;;12.80;53.90;;;;;;5103440;28;27459;-67
2021/03/10 09:57:32;;;;;;;28.95;18.52;;;13.20;53.20;;;;;;5103321;28;27414;-67
2021/03/10 10:00:18;;;;;;;33.17;18.85;;;13.80;52.10;;;;;;5102898;28;27470;-67
2021/03/10 10:03:07;;;;;;;31.15;18.92;;;14.30;51.30;;;;;;5103554;28;27390;-67
2021/03/10 10:06:05;;;;;;;26.90;18.63;;;14.70;50.80;;;;;;5103166;28;27328;-67
2021/03/10 10:08:50;;;;;;;30.25;18.60;;;14.90;50.30;;;;;;5106642;28;27482;-66
2021/03/10 10:11:36;;;;;;;28.98;18.20;;;15.00;50.20;;;;;;5087861;28;27462;-67
2021/03/10 10:14:21;;;;;;;28.80;18.25;;;15.20;49.90;;;;;;5103346;28;27388;-67
2021/03/10 10:17:06;;;;;;;27.60;17.35;;;15.50;49.20;;;;;;5106560;28;27411;-67
2021/03/10 10:19:52;;;;;;;25.23;16.80;;;15.60;49.00;;;;;;5102230;28;27489;-66
2021/03/10 10:22:36;;;;;;;24.63;17.30;;;15.70;48.80;;;;;;5088142;28;27495;-66
2021/03/10 10:25:21;;;;;;;26.52;17.85;;;15.80;48.80;;;;;;5102927;28;27404;-66
2021/03/10 10:28:06;;;;;;;21.35;15.70;;;16.00;48.30;;;;;;5102113;28;27457;-65
2021/03/10 10:30:53;;;;;;;22.90;15.45;;;16.20;47.70;;;;;;5102978;28;27410;-66
2021/03/10 10:33:38;;;;;;;22.95;15.88;;;16.50;47.60;;;;;;5103220;28;27450;-66
2021/03/10 10:36:23;;;;;;;24.00;16.25;;;16.60;47.50;;;;;;5090554;28;27455;-66
2021/03/10 10:39:08;;;;;;;20.52;13.20;;;16.80;47.00;;;;;;5086900;28;27977;-66
2021/03/10 10:41:52;;;;;;;22.58;15.25;;;17.00;46.60;;;;;;5105506;28;27419;-66
2021/03/10 10:44:40;;;;;;;20.08;14.30;;;17.20;46.20;;;;;;5087528;28;27421;-66
2021/03/10 10:47:27;;;;;;;19.45;13.77;;;17.40;46.10;;;;;;5105883;28;27404;-66
2021/03/10 10:50:24;;;;;;;20.52;13.27;;;17.70;45.60;;;;;;5102520;28;27335;-66
2021/03/10 10:53:10;;;;;;;17.85;12.75;;;18.00;45.00;;;;;;5102452;28;27377;-66
2021/03/10 10:55:55;;;;;;;17.10;12.15;;;18.30;44.50;;;;;;5102957;28;27615;-66
2021/03/10 10:58:40;;;;;;;17.60;13.23;;;18.50;44.10;;;;;;5106034;28;26849;-66
2021/03/10 11:01:25;;;;;;;16.45;11.68;;;18.70;43.60;;;;;;5101809;28;27861;-65
2021/03/10 11:04:10;;;;;;;15.30;11.68;;;18.90;43.30;;;;;;5087392;28;27353;-65
2021/03/10 11:06:55;;;;;;;16.00;12.05;;;19.10;42.70;;;;;;5102573;28;27418;-66
2021/03/10 11:09:40;;;;;;;15.88;11.00;;;19.40;42.20;;;;;;5090360;28;27415;-66
2021/03/10 11:12:27;;;;;;;15.52;10.93;;;19.70;41.70;;;;;;5086683;28;27938;-63
2021/03/10 11:15:18;;;;;;;14.63;10.40;;;20.10;41.30;;;;;;5087316;28;27337;-65
2021/03/10 11:18:11;;;;;;;15.13;10.75;;;20.40;40.90;;;;;;5087237;28;27313;-65
2021/03/10 11:20:56;;;;;;;14.25;10.82;;;20.60;40.30;;;;;;5087226;28;27393;-65
2021/03/10 11:23:42;;;;;;;14.57;10.82;;;21.00;39.70;;;;;;5105208;28;27873;-65
2021/03/10 11:26:27;;;;;;;15.55;9.52;;;21.50;38.90;;;;;;5086749;28;27416;-64
2021/03/10 11:29:12;;;;;;;14.25;9.77;;;21.70;38.40;;;;;;5089587;28;27392;-64
2021/03/10 11:31:57;;;;;;;11.25;9.48;;;21.70;38.70;;;;;;5086839;28;27375;-65
2021/03/10 11:34:42;;;;;;;12.13;8.38;;;21.50;39.10;;;;;;5105375;28;27336;-64
2021/03/10 11:37:27;;;;;;;13.18;8.48;;;21.30;39.00;;;;;;5086858;28;27375;-63
2021/03/10 11:40:14;;;;;;;12.25;8.25;;;21.10;39.10;;;;;;5086545;28;27340;-65
2021/03/10 11:43:02;;;;;;;9.13;7.47;;;20.70;39.90;;;;;;5086467;28;27500;-65
2021/03/10 11:45:47;;;;;;;10.18;7.35;;;20.30;40.20;;;;;;5105204;28;27400;-65
2021/03/10 11:48:31;;;;;;;10.70;7.20;;;19.80;40.80;;;;;;5104870;28;27523;-62
2021/03/10 11:51:16;;;;;;;9.68;7.07;;;19.50;40.80;;;;;;5101485;28;27466;-65
2021/03/10 11:54:01;;;;;;;9.40;7.03;;;19.30;40.70;;;;;;5104893;28;27341;-65
2021/03/10 11:56:45;;;;;;;10.88;6.53;;;19.10;40.70;;;;;;5103378;28;27330;-65
2021/03/10 11:59:30;;;;;;;10.25;6.60;;;19.10;40.90;;;;;;5104607;28;27406;-65
2021/03/10 12:02:23;;;;;;;8.63;6.85;;;19.20;40.50;;;;;;5086165;28;27359;-65
2021/03/10 12:05:13;;;;;;;9.27;6.53;;;19.30;40.40;;;;;;5104836;28;27459;-65
2021/03/10 12:07:58;;;;;;;9.32;5.53;;;19.40;40.20;;;;;;5104393;28;27462;-65
2021/03/10 12:10:42;;;;;;;10.02;5.70;;;19.60;39.70;;;;;;5104701;28;27478;-65
2021/03/10 12:13:27;;;;;;;7.85;5.93;;;19.80;39.40;;;;;;5104418;28;27476;-65
2021/03/10 12:16:11;;;;;;;8.20;5.75;;;19.90;39.60;;;;;;5104521;28;27484;-65
2021/03/10 12:18:56;;;;;;;7.05;5.63;;;19.90;39.10;;;;;;5086047;28;27444;-65
2021/03/10 12:21:42;;;;;;;8.30;5.50;;;19.90;38.90;;;;;;5101221;28;27450;-67
2021/03/10 12:24:26;;;;;;;17.10;10.10;;;19.80;38.40;;;;;;5104406;28;27464;-61
2021/03/10 12:27:11;;;;;;;14.32;8.80;;;19.30;34.30;;;;;;5104548;28;27474;-63
2021/03/10 12:30:01;;;;;;;19.35;9.30;;;18.80;34.40;;;;;;5086176;28;27593;-63
2021/03/10 12:32:46;;;;;;;43.40;12.35;;;18.30;35.20;;;;;;5103894;28;27498;-63
2021/03/10 12:35:30;;;;;;;20.30;10.45;;;18.00;35.80;;;;;;5104486;28;27470;-63
2021/03/10 12:38:14;;;;;;;21.50;9.40;;;17.70;36.00;;;;;;5104031;28;27447;-65
2021/03/10 12:40:59;;;;;;;17.80;9.25;;;17.50;36.20;;;;;;5103792;28;27432;-66
2021/03/10 12:43:43;;;;;;;31.13;9.55;;;17.30;36.60;;;;;;5104000;28;27508;-64
2021/03/10 12:46:31;;;;;;;18.73;9.90;;;17.20;36.90;;;;;;5100674;28;27408;-64
2021/03/10 12:49:15;;;;;;;17.08;10.68;;;17.10;36.90;;;;;;5103875;28;27475;-64
2021/03/10 12:52:00;;;;;;;19.08;9.88;;;16.90;36.70;;;;;;5104115;28;27519;-67
2021/03/10 12:54:44;;;;;;;13.35;8.75;;;16.90;36.50;;;;;;5103828;28;27467;-65
2021/03/10 12:57:29;;;;;;;15.68;8.68;;;16.80;36.90;;;;;;5085593;28;27516;-64
2021/03/10 13:00:14;;;;;;;147.30;18.05;;;16.90;37.30;;;;;;5104192;28;27399;-66
2021/03/10 13:02:58;;;;;;;83.43;13.63;;;17.00;37.10;;;;;;5107034;28;27969;-64
2021/03/10 13:05:44;;;;;;;49.33;9.98;;;17.30;37.00;;;;;;5107392;28;27469;-63
2021/03/10 13:08:28;;;;;;;29.83;9.40;;;17.70;35.70;;;;;;5107444;28;27493;-66
2021/03/10 13:11:13;;;;;;;22.63;8.65;;;18.20;36.00;;;;;;5107561;28;27327;-67
2021/03/10 13:13:57;;;;;;;26.30;7.22;;;18.90;36.00;;;;;;5107517;28;27521;-66
2021/03/10 13:16:42;;;;;;;25.25;7.20;;;19.60;35.60;;;;;;5091667;28;27514;-65
2021/03/10 13:19:27;;;;;;;21.23;6.82;;;20.30;35.90;;;;;;5107684;28;27432;-65
2021/03/10 13:22:11;;;;;;;20.77;6.10;;;21.00;35.20;;;;;;5107508;28;27420;-65
2021/03/10 13:24:56;;;;;;;17.65;6.40;;;21.60;34.10;;;;;;5107057;28;27470;-65
2021/03/10 13:27:42;;;;;;;10.32;4.80;;;22.20;33.50;;;;;;5107066;28;27466;-65
2021/03/10 13:30:26;;;;;;;13.88;5.85;;;22.70;32.90;;;;;;5107441;28;27473;-64
2021/03/10 13:33:11;;;;;;;9.63;5.78;;;23.10;32.40;;;;;;5106970;28;27407;-65
2021/03/10 13:35:55;;;;;;;13.68;6.10;;;23.40;31.70;;;;;;5103670;28;27331;-64
2021/03/10 13:38:40;;;;;;;10.85;6.25;;;23.60;31.10;;;;;;5107272;28;27333;-65
2021/03/10 13:41:24;;;;;;;9.00;6.25;;;23.70;31.40;;;;;;5106022;28;27399;-64
2021/03/10 13:44:09;;;;;;;9.32;4.57;;;23.70;30.70;;;;;;5106268;28;27308;-64
2021/03/10 13:46:53;;;;;;;7.78;4.55;;;23.60;30.60;;;;;;5103393;28;27945;-64
2021/03/10 13:49:37;;;;;;;13.77;4.63;;;23.60;31.30;;;;;;5106803;28;27403;-65
2021/03/10 13:52:22;;;;;;;6.65;4.40;;;23.70;31.40;;;;;;5091279;28;27420;-64
2021/03/10 13:55:08;;;;;;;6.80;4.75;;;23.60;31.40;;;;;;5106430;28;27393;-64
2021/03/10 13:57:53;;;;;;;5.05;4.00;;;23.40;32.10;;;;;;5091333;28;27406;-64
2021/03/10 14:00:37;;;;;;;7.25;4.00;;;23.20;32.60;;;;;;5106315;28;27420;-64
2021/03/10 14:03:22;;;;;;;7.80;3.60;;;23.20;33.00;;;;;;5106351;28;27428;-64
2021/03/10 14:06:06;;;;;;;5.10;3.33;;;23.20;33.20;;;;;;5106488;28;27328;-64
2021/03/10 14:08:51;;;;;;;4.97;3.53;;;23.20;33.30;;;;;;5106670;28;27352;-64
2021/03/10 14:11:35;;;;;;;5.32;3.72;;;23.10;33.40;;;;;;5105993;28;27424;-62
2021/03/10 14:14:20;;;;;;;4.65;3.45;;;23.10;33.60;;;;;;5104772;27;27513;-64